createdAt,value
2018-05-02T00:01:07.760Z,6.20
2018-05-02T00:03:35.317Z,6.10
2018-05-02T00:06:02.908Z,6.10
2018-05-02T00:08:30.504Z,6.10
2018-05-02T00:10:58.859Z,6.00
2018-05-02T00:13:26.434Z,6.00
2018-05-02T00:15:53.983Z,6.00
2018-05-02T00:18:21.612Z,5.90
2018-05-02T00:20:49.235Z,5.90
2018-05-02T00:23:16.828Z,5.90
2018-05-02T00:25:44.425Z,5.80
2018-05-02T00:28:11.984Z,5.80
2018-05-02T00:30:39.582Z,5.80
2018-05-02T00:33:07.170Z,5.80
2018-05-02T00:35:35.534Z,5.70
2018-05-02T00:38:03.115Z,5.70
2018-05-02T00:40:31.485Z,5.50
2018-05-02T00:42:59.048Z,5.50
2018-05-02T00:45:26.627Z,5.40
2018-05-02T00:47:54.980Z,5.30
2018-05-02T00:50:22.564Z,5.30
2018-05-02T00:52:50.135Z,5.30
2018-05-02T00:55:18.511Z,5.10
2018-05-02T00:57:46.131Z,5.10
2018-05-02T01:00:13.676Z,5.10
2018-05-02T01:02:41.293Z,5.00
2018-05-02T01:05:08.934Z,5.00
2018-05-02T01:07:36.519Z,5.00
2018-05-02T01:10:04.889Z,4.90
2018-05-02T01:12:32.453Z,4.80
2018-05-02T01:15:00.030Z,4.80
2018-05-02T01:17:27.588Z,4.80
2018-05-02T01:19:55.178Z,4.70
2018-05-02T01:22:22.735Z,4.70
2018-05-02T01:24:50.323Z,4.60
2018-05-02T01:27:18.639Z,4.60
2018-05-02T01:29:46.228Z,4.50
2018-05-02T01:32:13.783Z,4.50
2018-05-02T01:34:41.389Z,4.50
2018-05-02T01:37:08.937Z,4.40
2018-05-02T01:39:36.533Z,4.40
2018-05-02T01:42:04.927Z,4.30
2018-05-02T01:44:32.545Z,4.30
2018-05-02T01:47:00.104Z,4.20
2018-05-02T01:49:27.669Z,4.20
2018-05-02T01:51:55.263Z,4.20
2018-05-02T01:54:22.829Z,4.10
2018-05-02T01:56:50.441Z,4.10
2018-05-02T01:59:18.020Z,4.10
2018-05-02T02:01:45.597Z,4.00
2018-05-02T02:04:13.170Z,4.00
2018-05-02T02:06:40.765Z,4.00
2018-05-02T02:09:09.100Z,3.90
2018-05-02T02:11:36.695Z,3.90
2018-05-02T02:14:04.310Z,3.90
2018-05-02T02:16:31.880Z,3.90
2018-05-02T02:18:59.423Z,3.90
2018-05-02T02:21:27.006Z,3.90
2018-05-02T02:23:54.579Z,3.80
2018-05-02T02:26:22.171Z,3.80
2018-05-02T02:28:51.219Z,3.70
2018-05-02T02:31:18.795Z,3.70
2018-05-02T02:33:46.398Z,3.70
2018-05-02T02:36:13.974Z,3.70
2018-05-02T02:38:41.759Z,3.70
2018-05-02T02:41:10.132Z,3.70
2018-05-02T02:43:37.695Z,3.70
2018-05-02T02:46:05.392Z,3.60
2018-05-02T02:48:33.680Z,3.60
2018-05-02T02:51:01.279Z,3.60
2018-05-02T02:53:28.868Z,3.60
2018-05-02T02:55:56.440Z,3.50
2018-05-02T02:58:24.016Z,3.50
2018-05-02T03:00:52.344Z,3.50
2018-05-02T03:03:19.934Z,3.40
2018-05-02T03:05:47.538Z,3.50
2018-05-02T03:08:15.122Z,3.50
2018-05-02T03:10:42.697Z,3.50
2018-05-02T03:13:10.275Z,3.50
2018-05-02T03:15:37.915Z,3.50
2018-05-02T03:18:05.607Z,3.50
2018-05-02T03:20:33.141Z,3.50
2018-05-02T03:23:00.732Z,3.50
2018-05-02T03:25:28.270Z,3.50
2018-05-02T03:27:55.866Z,3.50
2018-05-02T03:30:23.419Z,3.50
2018-05-02T03:32:51.204Z,3.50
2018-05-02T03:35:18.746Z,3.50
2018-05-02T03:37:46.333Z,3.50
2018-05-02T03:40:13.876Z,3.50
2018-05-02T03:42:41.472Z,3.50
2018-05-02T03:45:09.031Z,3.50
2018-05-02T03:47:36.611Z,3.50
2018-05-02T03:50:04.182Z,3.50
2018-05-02T03:52:31.781Z,3.60
2018-05-02T03:55:00.109Z,3.60
2018-05-02T03:57:27.717Z,3.60
2018-05-02T04:00:07.897Z,3.70
2018-05-02T04:02:47.294Z,3.70
2018-05-02T04:05:27.392Z,3.80
2018-05-02T04:07:54.950Z,3.80
2018-05-02T04:10:22.544Z,3.90
2018-05-02T04:12:50.131Z,4.00
2018-05-02T04:15:17.686Z,4.00
2018-05-02T04:17:46.044Z,4.30
2018-05-02T04:20:13.600Z,4.30
2018-05-02T04:22:41.180Z,4.40
2018-05-02T04:25:08.752Z,4.50
2018-05-02T04:27:36.343Z,4.60
2018-05-02T04:30:03.888Z,4.70
2018-05-02T04:32:31.444Z,4.80
2018-05-02T04:34:59.014Z,5.00
2018-05-02T04:37:26.888Z,5.00
2018-05-02T04:39:54.822Z,5.10
2018-05-02T04:42:22.400Z,5.30
2018-05-02T04:44:50.253Z,5.40
2018-05-02T04:47:17.837Z,5.40
2018-05-02T04:49:45.413Z,5.50
2018-05-02T04:52:13.000Z,5.60
2018-05-02T04:54:40.547Z,5.70
2018-05-02T04:57:08.136Z,5.70
2018-05-02T04:59:37.176Z,5.80
2018-05-02T05:02:04.715Z,5.80
2018-05-02T05:04:33.361Z,6.00
2018-05-02T05:07:01.732Z,6.00
2018-05-02T05:09:29.369Z,6.00
2018-05-02T05:11:57.027Z,6.10
2018-05-02T05:14:25.336Z,6.20
2018-05-02T05:16:52.918Z,6.20
2018-05-02T05:19:20.491Z,6.20
2018-05-02T05:21:48.072Z,6.30
2018-05-02T05:24:15.638Z,6.40
2018-05-02T05:26:43.296Z,6.40
2018-05-02T05:29:11.635Z,6.50
2018-05-02T05:31:39.236Z,6.50
2018-05-02T05:34:06.849Z,6.50
2018-05-02T05:36:35.237Z,6.70
2018-05-02T05:39:02.820Z,6.70
2018-05-02T05:41:30.416Z,6.70
2018-05-02T05:43:57.968Z,6.80
2018-05-02T05:46:25.572Z,6.80
2018-05-02T05:48:53.162Z,6.90
2018-05-02T05:51:21.717Z,7.00
2018-05-02T05:53:49.309Z,7.00
2018-05-02T05:56:17.634Z,7.10
2018-05-02T05:58:45.214Z,7.10
2018-05-02T06:01:12.764Z,7.20
2018-05-02T06:03:40.359Z,7.30
2018-05-02T06:06:07.920Z,7.40
2018-05-02T06:08:35.522Z,7.50
2018-05-02T06:11:03.846Z,7.60
2018-05-02T06:13:31.451Z,7.60
2018-05-02T06:15:59.008Z,7.70
2018-05-02T06:18:26.555Z,7.80
2018-05-02T06:20:54.149Z,7.90
2018-05-02T06:23:21.742Z,7.90
2018-05-02T06:25:49.327Z,8.00
2018-05-02T06:28:16.894Z,8.10
2018-05-02T06:30:44.482Z,8.20
2018-05-02T06:33:12.041Z,8.20
2018-05-02T06:35:40.380Z,8.40
2018-05-02T06:38:07.939Z,8.40
2018-05-02T06:40:35.551Z,8.40
2018-05-02T06:43:03.097Z,8.50
2018-05-02T06:45:30.678Z,8.60
2018-05-02T06:47:58.247Z,8.70
2018-05-02T06:50:25.897Z,8.80
2018-05-02T06:52:53.440Z,8.90
2018-05-02T06:55:20.986Z,8.90
2018-05-02T06:57:49.341Z,9.10
2018-05-02T07:00:16.885Z,9.10
2018-05-02T07:02:44.465Z,9.20
2018-05-02T07:05:12.031Z,9.20
2018-05-02T07:07:39.605Z,9.30
2018-05-02T07:10:07.154Z,9.40
2018-05-02T07:12:35.743Z,9.40
2018-05-02T07:15:04.134Z,9.60
2018-05-02T07:17:31.707Z,9.50
2018-05-02T07:19:59.251Z,9.60
2018-05-02T07:22:26.843Z,9.70
2018-05-02T07:24:55.305Z,9.80
2018-05-02T07:27:23.696Z,9.90
2018-05-02T07:29:51.242Z,9.90
2018-05-02T07:32:18.827Z,10.00
2018-05-02T07:34:46.388Z,10.00
2018-05-02T07:37:13.982Z,10.10
2018-05-02T07:39:42.302Z,10.20
2018-05-02T07:42:09.975Z,10.20
2018-05-02T07:44:37.564Z,10.30
2018-05-02T07:47:05.149Z,10.30
2018-05-02T07:49:32.752Z,10.40
2018-05-02T07:52:00.335Z,10.50
2018-05-02T07:54:27.932Z,10.50
2018-05-02T07:56:55.504Z,10.60
2018-05-02T07:59:23.101Z,10.70
2018-05-02T08:01:51.464Z,10.80
2018-05-02T08:04:19.839Z,10.80
2018-05-02T08:06:48.198Z,10.90
2018-05-02T08:09:15.756Z,10.90
2018-05-02T08:11:43.347Z,11.00
2018-05-02T08:14:10.918Z,11.10
2018-05-02T08:16:38.506Z,11.20
2018-05-02T08:19:06.830Z,11.30
2018-05-02T08:21:34.419Z,11.30
2018-05-02T08:24:01.973Z,11.30
2018-05-02T08:26:30.348Z,11.50
2018-05-02T08:28:57.905Z,11.50
2018-05-02T08:31:25.498Z,11.60
2018-05-02T08:33:53.061Z,11.60
2018-05-02T08:36:20.645Z,11.70
2018-05-02T08:38:48.217Z,11.80
2018-05-02T08:41:16.557Z,11.90
2018-05-02T08:43:44.113Z,11.90
2018-05-02T08:46:11.959Z,12.00
2018-05-02T08:48:39.785Z,12.00
2018-05-02T08:51:07.422Z,12.10
2018-05-02T08:53:35.151Z,12.20
2018-05-02T08:56:03.143Z,12.30
2018-05-02T08:58:30.918Z,12.30
2018-05-02T09:00:58.886Z,12.40
2018-05-02T09:03:26.433Z,12.50
2018-05-02T09:05:54.031Z,12.50
2018-05-02T09:08:21.571Z,12.60
2018-05-02T09:10:49.167Z,12.70
2018-05-02T09:13:16.715Z,12.80
2018-05-02T09:15:44.285Z,12.90
2018-05-02T09:18:11.869Z,12.90
2018-05-02T09:20:39.554Z,13.00
2018-05-02T09:23:07.918Z,13.20
2018-05-02T09:25:36.245Z,13.20
2018-05-02T09:28:03.857Z,13.20
2018-05-02T09:30:31.413Z,13.30
2018-05-02T09:32:59.004Z,13.40
2018-05-02T09:35:27.318Z,13.60
2018-05-02T09:37:54.910Z,13.60
2018-05-02T09:40:22.453Z,13.70
2018-05-02T09:42:50.797Z,13.90
2018-05-02T09:45:18.372Z,13.90
2018-05-02T09:47:45.955Z,14.00
2018-05-02T09:50:13.497Z,14.10
2018-05-02T09:52:41.076Z,14.10
2018-05-02T09:55:08.624Z,14.20
2018-05-02T09:57:36.212Z,14.10
2018-05-02T10:00:03.757Z,14.10
2018-05-02T10:02:31.310Z,14.00
2018-05-02T10:04:58.902Z,14.00
2018-05-02T10:07:26.555Z,14.00
2018-05-02T10:09:54.184Z,14.00
2018-05-02T10:12:21.780Z,13.90
2018-05-02T10:14:49.367Z,13.90
2018-05-02T10:17:17.775Z,13.80
2018-05-02T10:19:45.356Z,13.80
2018-05-02T10:22:12.913Z,13.90
2018-05-02T10:24:40.492Z,14.00
2018-05-02T10:27:08.037Z,14.10
2018-05-02T10:29:35.621Z,14.30
2018-05-02T10:32:03.161Z,14.40
2018-05-02T10:34:30.748Z,14.60
2018-05-02T10:36:58.292Z,14.80
2018-05-02T10:39:25.884Z,14.90
2018-05-02T10:41:53.512Z,14.90
2018-05-02T10:44:21.077Z,14.90
2018-05-02T10:46:49.441Z,15.10
2018-05-02T10:49:16.998Z,15.10
2018-05-02T10:51:44.681Z,15.20
2018-05-02T10:54:12.239Z,15.30
2018-05-02T10:56:40.610Z,15.30
2018-05-02T10:59:08.159Z,15.30
2018-05-02T11:01:35.732Z,15.30
2018-05-02T11:04:03.294Z,15.40
2018-05-02T11:06:30.876Z,15.40
2018-05-02T11:08:59.067Z,15.50
2018-05-02T11:11:26.638Z,15.50
2018-05-02T11:13:54.964Z,15.60
2018-05-02T11:16:22.545Z,15.60
2018-05-02T11:18:50.099Z,15.60
2018-05-02T11:21:17.758Z,15.70
2018-05-02T11:23:45.329Z,15.80
2018-05-02T11:26:12.898Z,15.80
2018-05-02T11:28:40.450Z,15.80
2018-05-02T11:31:08.054Z,15.80
2018-05-02T11:33:35.660Z,15.90
2018-05-02T11:36:03.214Z,15.90
2018-05-02T11:38:31.560Z,16.00
2018-05-02T11:40:59.115Z,15.90
2018-05-02T11:43:26.713Z,16.00
2018-05-02T11:45:55.018Z,16.10
2018-05-02T11:48:22.596Z,16.10
2018-05-02T11:50:50.158Z,16.10
2018-05-02T11:53:17.734Z,16.10
2018-05-02T11:55:45.329Z,16.10
2018-05-02T11:58:12.903Z,16.20
2018-05-02T12:00:40.476Z,16.30
2018-05-02T12:03:08.835Z,16.30
2018-05-02T12:05:36.413Z,16.30
2018-05-02T12:08:03.959Z,16.40
2018-05-02T12:10:31.580Z,16.40
2018-05-02T12:12:59.891Z,16.50
2018-05-02T12:15:27.469Z,16.40
2018-05-02T12:17:55.040Z,16.50
2018-05-02T12:20:22.649Z,16.50
2018-05-02T12:22:50.963Z,16.60
2018-05-02T12:25:18.536Z,16.60
2018-05-02T12:27:46.171Z,16.60
2018-05-02T12:30:13.721Z,16.70
2018-05-02T12:32:42.056Z,16.70
2018-05-02T12:35:09.625Z,16.70
2018-05-02T12:37:37.174Z,16.70
2018-05-02T12:40:04.750Z,16.80
2018-05-02T12:42:32.305Z,16.70
2018-05-02T12:44:59.899Z,16.80
2018-05-02T12:47:27.466Z,16.80
2018-05-02T12:49:55.033Z,16.80
2018-05-02T12:52:22.588Z,16.90
2018-05-02T12:54:50.163Z,16.90
2018-05-02T12:57:17.752Z,17.00
2018-05-02T12:59:46.083Z,17.00
2018-05-02T13:02:13.626Z,17.00
2018-05-02T13:04:41.211Z,17.10
2018-05-02T13:07:08.748Z,17.10
2018-05-02T13:09:36.286Z,17.10
2018-05-02T13:12:03.860Z,17.20
2018-05-02T13:14:32.172Z,17.20
2018-05-02T13:16:59.741Z,17.10
2018-05-02T13:19:27.293Z,17.20
2018-05-02T13:21:54.867Z,17.30
2018-05-02T13:24:22.415Z,17.30
2018-05-02T13:26:49.994Z,17.30
2018-05-02T13:29:17.529Z,17.30
2018-05-02T13:31:45.863Z,17.40
2018-05-02T13:34:13.411Z,17.40
2018-05-02T13:36:40.994Z,17.40
2018-05-02T13:39:08.577Z,17.50
2018-05-02T13:41:36.175Z,17.40
2018-05-02T13:44:04.943Z,17.30
2018-05-02T13:46:32.490Z,17.30
2018-05-02T13:49:00.067Z,17.30
2018-05-02T13:51:27.746Z,17.30
2018-05-02T13:53:56.047Z,17.30
2018-05-02T13:56:23.606Z,17.30
2018-05-02T13:58:51.965Z,17.30
2018-05-02T14:01:19.545Z,17.30
2018-05-02T14:03:47.902Z,17.30
2018-05-02T14:06:15.461Z,17.30
2018-05-02T14:08:43.034Z,17.40
2018-05-02T14:11:10.598Z,17.30
2018-05-02T14:13:38.201Z,17.30
2018-05-02T14:16:06.511Z,17.40
2018-05-02T14:18:34.099Z,17.30
2018-05-02T14:21:02.412Z,17.40
2018-05-02T14:23:30.007Z,17.40
2018-05-02T14:25:57.557Z,17.30
2018-05-02T14:28:25.903Z,17.30
2018-05-02T14:30:53.457Z,17.30
2018-05-02T14:33:21.026Z,17.30
2018-05-02T14:35:49.347Z,17.40
2018-05-02T14:38:17.001Z,17.40
2018-05-02T14:40:44.521Z,17.40
2018-05-02T14:43:12.111Z,17.50
2018-05-02T14:45:39.714Z,17.50
2018-05-02T14:48:08.081Z,17.40
2018-05-02T14:50:36.446Z,17.40
2018-05-02T14:53:04.052Z,17.40
2018-05-02T14:55:31.631Z,17.40
2018-05-02T14:57:59.170Z,17.40
2018-05-02T15:00:27.509Z,17.30
2018-05-02T15:02:55.056Z,17.30
2018-05-02T15:05:22.641Z,17.30
2018-05-02T15:07:50.185Z,17.30
2018-05-02T15:10:17.858Z,17.30
2018-05-02T15:12:45.410Z,17.40
2018-05-02T15:15:13.823Z,17.30
2018-05-02T15:17:41.371Z,17.30
2018-05-02T15:20:08.954Z,17.30
2018-05-02T15:22:36.513Z,17.30
2018-05-02T15:25:04.126Z,17.30
2018-05-02T15:27:32.456Z,17.20
2018-05-02T15:30:00.075Z,17.10
2018-05-02T15:32:27.700Z,17.20
2018-05-02T15:34:55.190Z,17.10
2018-05-02T15:37:23.549Z,17.00
2018-05-02T15:39:51.108Z,17.10
2018-05-02T15:42:18.692Z,17.10
2018-05-02T15:44:46.239Z,17.00
2018-05-02T15:47:13.810Z,17.00
2018-05-02T15:49:41.358Z,17.00
2018-05-02T15:52:08.941Z,17.00
2018-05-02T15:54:36.499Z,16.90
2018-05-02T15:57:04.077Z,16.90
2018-05-02T15:59:31.619Z,16.90
2018-05-02T16:01:59.203Z,16.90
2018-05-02T16:04:26.755Z,16.90
2018-05-02T16:06:54.351Z,16.90
2018-05-02T16:09:22.686Z,16.90
2018-05-02T16:11:50.265Z,16.90
2018-05-02T16:16:52.453Z,16.80
2018-05-02T16:19:20.029Z,16.80
2018-05-02T16:21:47.608Z,16.80
2018-05-02T16:24:15.163Z,16.70
2018-05-02T16:26:42.742Z,16.60
2018-05-02T16:29:10.311Z,16.60
2018-05-02T16:31:38.614Z,16.60
2018-05-02T16:34:06.191Z,16.50
2018-05-02T16:36:33.761Z,16.60
2018-05-02T16:39:01.412Z,16.50
2018-05-02T16:41:28.915Z,16.50
2018-05-02T16:43:56.485Z,16.50
2018-05-02T16:46:24.027Z,16.40
2018-05-02T16:48:51.602Z,16.40
2018-05-02T16:51:19.154Z,16.30
2018-05-02T16:53:46.753Z,16.30
2018-05-02T16:56:14.300Z,16.30
2018-05-02T16:58:42.687Z,16.20
2018-05-02T17:01:10.235Z,16.20
2018-05-02T17:03:37.797Z,16.20
2018-05-02T17:06:05.351Z,16.20
2018-05-02T17:08:32.926Z,16.20
2018-05-02T17:11:00.493Z,16.20
2018-05-02T17:13:28.054Z,16.10
2018-05-02T17:15:55.656Z,16.10
2018-05-02T17:18:23.201Z,16.10
2018-05-02T17:20:50.801Z,16.10
2018-05-02T17:23:19.131Z,16.00
2018-05-02T17:25:46.764Z,16.00
2018-05-02T17:28:15.104Z,15.90
2018-05-02T17:30:42.694Z,15.90
2018-05-02T17:33:10.293Z,15.90
2018-05-02T17:35:37.905Z,15.90
2018-05-02T17:38:05.492Z,15.80
2018-05-02T17:40:33.923Z,15.70
2018-05-02T17:43:01.468Z,15.70
2018-05-02T17:45:29.074Z,15.70
2018-05-02T17:47:56.652Z,15.60
2018-05-02T17:50:24.195Z,15.60
2018-05-02T17:52:51.844Z,15.50
2018-05-02T17:55:19.341Z,15.50
2018-05-02T17:57:46.936Z,15.50
2018-05-02T18:00:15.239Z,15.40
2018-05-02T18:02:42.828Z,15.40
2018-05-02T18:05:10.378Z,15.30
2018-05-02T18:07:37.950Z,15.30
2018-05-02T18:10:05.504Z,15.30
2018-05-02T18:12:33.101Z,15.20
2018-05-02T18:15:00.644Z,15.20
2018-05-02T18:17:28.241Z,15.10
2018-05-02T18:19:55.787Z,15.00
2018-05-02T18:22:23.391Z,15.00
2018-05-02T18:24:50.935Z,14.90
2018-05-02T18:27:18.491Z,14.90
2018-05-02T18:29:46.088Z,14.90
2018-05-02T18:32:14.426Z,14.80
2018-05-02T18:34:42.016Z,14.70
2018-05-02T18:37:09.570Z,14.70
2018-05-02T18:39:37.147Z,14.60
2018-05-02T18:42:04.736Z,14.50
2018-05-02T18:44:33.059Z,14.40
2018-05-02T18:47:00.680Z,14.40
2018-05-02T18:49:28.243Z,14.30
2018-05-02T18:51:55.811Z,14.30
2018-05-02T18:54:24.151Z,14.10
2018-05-02T18:56:51.724Z,14.10
2018-05-02T18:59:20.070Z,14.00
2018-05-02T19:01:47.633Z,14.00
2018-05-02T19:04:15.221Z,14.00
2018-05-02T19:06:42.785Z,13.90
2018-05-02T19:09:10.367Z,13.80
2018-05-02T19:11:37.913Z,13.70
2018-05-02T19:14:05.538Z,13.60
2018-05-02T19:16:33.094Z,13.60
2018-05-02T19:19:06.497Z,13.50
2018-05-02T19:21:34.077Z,13.50
2018-05-02T19:24:02.488Z,13.40
2018-05-02T19:26:35.686Z,13.40
2018-05-02T19:29:03.269Z,13.30
2018-05-02T19:31:36.623Z,13.30
2018-05-02T19:34:04.334Z,13.30
2018-05-02T19:36:32.647Z,13.20
2018-05-02T19:39:00.225Z,13.20
2018-05-02T19:41:36.234Z,13.10
2018-05-02T19:44:03.795Z,13.10
2018-05-02T19:46:31.374Z,13.00
2018-05-02T19:48:58.949Z,13.00
2018-05-02T19:51:32.194Z,13.00
2018-05-02T19:53:59.751Z,12.90
2018-05-02T19:56:27.382Z,12.90
2018-05-02T19:58:54.930Z,12.80
2018-05-02T20:01:28.315Z,12.80
2018-05-02T20:03:55.875Z,12.70
2018-05-02T20:06:23.531Z,12.70
2018-05-02T20:08:56.666Z,12.60
2018-05-02T20:11:29.825Z,12.60
2018-05-02T20:14:02.931Z,12.60
2018-05-02T20:16:30.516Z,12.50
2018-05-02T20:18:58.056Z,12.50
2018-05-02T20:21:25.647Z,12.50
2018-05-02T20:23:53.194Z,12.40
2018-05-02T20:26:20.766Z,12.40
2018-05-02T20:28:48.315Z,12.30
2018-05-02T20:31:15.872Z,12.30
2018-05-02T20:33:43.457Z,12.30
2018-05-02T20:36:11.032Z,12.30
2018-05-02T20:38:38.606Z,12.20
2018-05-02T20:41:06.919Z,12.10
2018-05-02T20:43:34.492Z,12.10
2018-05-02T20:46:02.045Z,12.10
2018-05-02T20:48:29.616Z,12.00
2018-05-02T20:50:57.162Z,12.00
2018-05-02T20:53:25.511Z,11.80
2018-05-02T20:55:53.140Z,11.80
2018-05-02T20:58:20.715Z,11.90
2018-05-02T21:00:48.254Z,11.80
2018-05-02T21:03:15.819Z,11.80
2018-05-02T21:05:43.366Z,11.80
2018-05-02T21:08:10.953Z,11.70
2018-05-02T21:10:38.496Z,11.60
2018-05-02T21:13:06.826Z,11.60
2018-05-02T21:15:34.418Z,11.50
2018-05-02T21:18:01.967Z,11.50
2018-05-02T21:20:29.788Z,11.50
2018-05-02T21:22:57.471Z,11.50
2018-05-02T21:25:25.031Z,11.50
2018-05-02T21:27:52.619Z,11.50
2018-05-02T21:30:20.224Z,11.40
2018-05-02T21:32:48.622Z,11.40
2018-05-02T21:35:16.204Z,11.40
2018-05-02T21:37:43.803Z,11.40
2018-05-02T21:40:11.382Z,11.40
2018-05-02T21:42:38.928Z,11.30
2018-05-02T21:45:06.514Z,11.30
2018-05-02T21:47:34.084Z,11.30
2018-05-02T21:50:01.639Z,11.30
2018-05-02T21:52:29.246Z,11.30
2018-05-02T21:54:57.581Z,11.30
2018-05-02T21:57:25.170Z,11.30
2018-05-02T21:59:52.737Z,11.30
2018-05-02T22:02:21.069Z,11.30
2018-05-02T22:04:48.648Z,11.20
2018-05-02T22:07:16.201Z,11.30
2018-05-02T22:09:43.795Z,11.30
2018-05-02T22:12:11.367Z,11.30
2018-05-02T22:14:38.905Z,11.30
2018-05-02T22:17:06.479Z,11.30
2018-05-02T22:19:34.034Z,11.20
2018-05-02T22:22:01.596Z,11.20
2018-05-02T22:24:29.135Z,11.20
2018-05-02T22:26:56.721Z,11.20
2018-05-02T22:29:24.272Z,11.20
2018-05-02T22:31:51.827Z,11.10
2018-05-02T22:34:19.408Z,11.10
2018-05-02T22:36:47.034Z,11.10
2018-05-02T22:39:14.792Z,11.10
2018-05-02T22:41:43.123Z,11.00
2018-05-02T22:44:10.705Z,11.00
2018-05-02T22:46:38.255Z,11.00
2018-05-02T22:49:05.832Z,11.00
2018-05-02T22:51:33.379Z,11.00
2018-05-02T22:54:00.963Z,11.00
2018-05-02T22:56:28.624Z,11.00
2018-05-02T22:58:56.215Z,11.00
2018-05-02T23:01:23.754Z,11.00
2018-05-02T23:03:51.331Z,11.00
2018-05-02T23:06:18.975Z,11.00
2018-05-02T23:08:46.569Z,11.00
2018-05-02T23:11:14.132Z,11.00
2018-05-02T23:13:41.735Z,11.00
2018-05-02T23:16:10.124Z,11.00
2018-05-02T23:18:38.433Z,11.00
2018-05-02T23:21:06.011Z,11.00
2018-05-02T23:23:34.444Z,11.00
2018-05-02T23:26:02.014Z,11.00
2018-05-02T23:28:30.360Z,11.00
2018-05-02T23:30:57.905Z,11.00
2018-05-02T23:33:25.540Z,11.00
2018-05-02T23:35:53.095Z,11.00
2018-05-02T23:38:21.507Z,10.90
2018-05-02T23:40:49.225Z,10.90
2018-05-02T23:43:16.770Z,10.90
2018-05-02T23:45:44.548Z,10.90
2018-05-02T23:48:12.251Z,10.90
2018-05-02T23:50:39.798Z,10.90
2018-05-02T23:53:07.373Z,10.80
2018-05-02T23:55:35.718Z,10.70
2018-05-02T23:58:03.312Z,10.70
